Time;durP1;ratioP1;P1;durP2;ratioP2;P2;SDS_P1;SDS_P2;PMS_P1;PMS_P2;Temp;Humidity;BMP_temperature;BMP_pressure;BME280_temperature;BME280_humidity;BME280_pressure;Samples;Min_cycle;Max_cycle;Signal;HPM_P1;HPM_P2
2023/06/22 00:00:53;;;;;;;7.00;6.25;;;20.80;28.70;;;;;;5053671;28;20200;-64
2023/06/22 00:03:20;;;;;;;8.43;6.70;;;20.80;29.30;;;;;;5054037;28;20533;-65
2023/06/22 00:05:46;;;;;;;8.57;6.45;;;20.80;28.20;;;;;;5053797;28;20157;-65
2023/06/22 00:08:13;;;;;;;7.90;6.65;;;20.80;27.90;;;;;;5054273;28;20180;-64
2023/06/22 00:10:39;;;;;;;8.20;7.13;;;20.80;26.10;;;;;;5053964;28;20711;-64
2023/06/22 00:13:05;;;;;;;9.52;6.80;;;20.90;27.00;;;;;;5054170;28;20248;-64
2023/06/22 00:15:31;;;;;;;10.93;7.25;;;20.90;27.20;;;;;;5054125;28;20173;-63
2023/06/22 00:17:57;;;;;;;7.68;6.75;;;20.90;29.80;;;;;;5053852;28;20667;-63
2023/06/22 00:20:27;;;;;;;7.32;6.05;;;20.90;27.80;;;;;;5053529;28;20251;-65
2023/06/22 00:22:57;;;;;;;7.35;6.07;;;20.90;30.20;;;;;;5053860;28;20172;-64
2023/06/22 00:25:23;;;;;;;7.28;6.40;;;20.90;31.20;;;;;;5053835;28;20170;-66
2023/06/22 00:27:49;;;;;;;8.90;7.10;;;20.90;32.10;;;;;;5053885;28;20189;-64
2023/06/22 00:30:18;;;;;;;8.85;6.20;;;20.80;31.30;;;;;;5053696;28;20552;-65
2023/06/22 00:32:45;;;;;;;8.88;6.60;;;20.80;31.30;;;;;;5053802;28;20173;-65
2023/06/22 00:35:12;;;;;;;7.75;6.10;;;20.80;33.20;;;;;;5053342;28;20577;-63
2023/06/22 00:37:41;;;;;;;10.18;6.20;;;20.90;33.50;;;;;;5053294;28;20221;-64
2023/06/22 00:40:08;;;;;;;6.72;6.03;;;20.90;33.30;;;;;;5053420;28;20188;-64
2023/06/22 00:42:34;;;;;;;6.20;5.65;;;21.00;31.60;;;;;;5053704;28;20256;-64
2023/06/22 00:45:00;;;;;;;7.90;6.00;;;20.90;29.50;;;;;;5053469;28;20600;-64
2023/06/22 00:47:26;;;;;;;10.07;6.28;;;20.90;31.50;;;;;;5053622;28;20212;-63
2023/06/22 00:49:52;;;;;;;7.85;5.88;;;20.90;30.10;;;;;;5052971;28;20676;-64
2023/06/22 00:52:21;;;;;;;6.72;6.10;;;20.80;32.80;;;;;;5053231;28;20244;-63
2023/06/22 00:54:50;;;;;;;6.85;5.90;;;20.90;31.40;;;;;;5053454;28;20235;-65
2023/06/22 00:57:18;;;;;;;6.60;5.90;;;21.00;28.50;;;;;;5053338;28;20201;-64
2023/06/22 00:59:44;;;;;;;9.35;6.30;;;20.90;26.50;;;;;;5053274;28;20258;-64
2023/06/22 01:02:10;;;;;;;9.48;6.22;;;21.00;26.00;;;;;;5053159;28;20188;-63
2023/06/22 01:04:38;;;;;;;10.23;6.10;;;21.00;27.30;;;;;;5052852;28;20165;-64
2023/06/22 01:07:13;;;;;;;11.93;6.63;;;21.00;19.20;;;;;;5053081;28;20663;-64
2023/06/22 01:10:07;;;;;;;9.48;5.95;;;20.90;18.50;;;;;;5035173;28;20208;-63
2023/06/22 01:12:43;;;;;;;8.10;6.03;;;20.90;15.60;;;;;;5024537;28;20181;-64
2023/06/22 01:15:15;;;;;;;9.05;6.45;;;20.80;17.40;;;;;;5053180;28;20292;-64
2023/06/22 01:17:42;;;;;;;7.55;6.18;;;20.80;19.20;;;;;;5053166;28;20481;-65
2023/06/22 01:20:11;;;;;;;7.72;6.35;;;20.70;17.20;;;;;;5053054;28;20694;-64
2023/06/22 01:23:06;;;;;;;8.43;6.47;;;20.70;18.80;;;;;;5053017;28;20257;-63
2023/06/22 01:25:49;;;;;;;7.40;5.95;;;20.70;20.30;;;;;;5052343;28;20181;-64
2023/06/22 01:28:33;;;;;;;7.38;5.60;;;20.70;15.10;;;;;;5052758;28;20668;-64
2023/06/22 01:31:05;;;;;;;6.78;5.82;;;20.60;19.60;;;;;;5053030;28;20200;-65
2023/06/22 01:33:37;;;;;;;5.82;5.32;;;20.50;13.40;;;;;;5052679;28;20530;-63
2023/06/22 01:36:04;;;;;;;6.13;5.53;;;20.50;19.00;;;;;;5052887;28;20258;-65
2023/06/22 01:38:31;;;;;;;6.00;5.50;;;20.40;11.30;;;;;;5052639;28;20217;-67
2023/06/22 01:40:58;;;;;;;7.97;5.38;;;20.40;16.10;;;;;;5052860;28;20724;-64
2023/06/22 01:43:26;;;;;;;8.68;5.60;;;20.40;15.20;;;;;;5052737;28;20200;-63
2023/06/22 01:45:53;;;;;;;8.45;5.13;;;20.50;11.30;;;;;;5052574;28;20687;-64
2023/06/22 01:48:20;;;;;;;5.78;5.20;;;20.50;7.00;;;;;;5052778;28;20169;-64
2023/06/22 01:50:46;;;;;;;5.95;5.35;;;20.40;6.80;;;;;;5052633;28;20262;-64
2023/06/22 01:53:11;;;;;;;8.02;5.50;;;20.40;8.20;;;;;;5052590;28;20169;-65
2023/06/22 01:55:37;;;;;;;5.88;5.22;;;20.40;15.10;;;;;;5052701;28;20173;-64
2023/06/22 01:58:02;;;;;;;6.20;5.60;;;20.40;18.30;;;;;;5052472;28;20177;-64
2023/06/22 02:00:33;;;;;;;9.73;5.43;;;20.30;22.60;;;;;;5052243;28;20256;-64
2023/06/22 02:03:05;;;;;;;7.18;5.10;;;20.30;26.30;;;;;;5052663;28;20172;-63
2023/06/22 02:05:42;;;;;;;6.53;4.88;;;20.40;26.60;;;;;;5052652;28;20526;-63
2023/06/22 02:08:17;;;;;;;7.80;5.10;;;20.30;28.80;;;;;;5034640;28;20181;-65
2023/06/22 02:10:45;;;;;;;9.75;5.40;;;20.30;26.80;;;;;;5052625;28;20231;-63
2023/06/22 02:13:12;;;;;;;5.68;4.88;;;20.20;26.60;;;;;;5034682;28;20184;-63
2023/06/22 02:15:38;;;;;;;6.63;5.30;;;20.10;29.10;;;;;;5052112;28;20671;-63
2023/06/22 02:18:04;;;;;;;6.18;5.07;;;20.00;32.30;;;;;;5052447;28;20169;-64
2023/06/22 02:20:30;;;;;;;8.15;4.95;;;19.90;30.90;;;;;;5052398;28;20177;-63
2023/06/22 02:22:56;;;;;;;5.70;5.18;;;19.90;37.70;;;;;;5052841;28;20161;-64
2023/06/22 02:25:22;;;;;;;7.13;5.32;;;19.90;37.90;;;;;;5056177;28;20632;-63
2023/06/22 02:27:47;;;;;;;6.53;5.07;;;19.80;36.10;;;;;;5055888;28;20562;-65
2023/06/22 02:30:14;;;;;;;6.20;5.60;;;19.90;38.90;;;;;;5055793;28;20213;-64
2023/06/22 02:32:42;;;;;;;6.50;5.68;;;19.90;39.60;;;;;;5056032;28;20170;-63
2023/06/22 02:35:11;;;;;;;6.97;5.85;;;19.90;35.90;;;;;;5055851;28;20708;-64
2023/06/22 02:37:41;;;;;;;5.82;5.32;;;20.00;34.10;;;;;;5055543;28;20220;-64
2023/06/22 02:40:08;;;;;;;8.95;5.82;;;19.90;36.90;;;;;;5055767;28;20234;-64
2023/06/22 02:42:36;;;;;;;8.77;6.38;;;19.90;40.00;;;;;;5055945;28;20231;-62
2023/06/22 02:45:02;;;;;;;11.13;5.55;;;19.80;41.50;;;;;;5055427;28;20197;-64
2023/06/22 02:47:28;;;;;;;7.00;5.82;;;19.70;44.00;;;;;;5055686;28;20721;-64
2023/06/22 02:49:53;;;;;;;9.63;5.68;;;19.70;45.10;;;;;;5055368;28;20209;-64
2023/06/22 02:52:19;;;;;;;6.55;5.95;;;19.70;45.10;;;;;;5055523;28;20575;-64
2023/06/22 02:54:45;;;;;;;6.80;6.10;;;19.70;44.40;;;;;;5055608;28;20227;-64
2023/06/22 02:57:13;;;;;;;7.32;6.40;;;19.60;48.00;;;;;;5055606;28;20173;-63
2023/06/22 02:59:41;;;;;;;7.47;6.50;;;19.60;48.40;;;;;;5055101;28;20181;-63
2023/06/22 03:02:07;;;;;;;8.13;6.43;;;19.60;48.10;;;;;;5055543;28;20632;-64
2023/06/22 03:04:34;;;;;;;9.10;6.85;;;19.50;44.10;;;;;;5055402;28;20187;-64
2023/06/22 03:07:01;;;;;;;9.35;7.00;;;19.50;45.00;;;;;;5055226;28;20659;-64
2023/06/22 03:09:27;;;;;;;7.65;6.85;;;19.50;47.00;;;;;;5055201;28;20262;-63
2023/06/22 03:11:56;;;;;;;11.65;6.50;;;19.40;48.00;;;;;;5055095;28;20205;-63
2023/06/22 03:14:22;;;;;;;7.30;6.05;;;19.40;53.70;;;;;;5054927;28;20197;-64
2023/06/22 03:16:48;;;;;;;10.95;7.05;;;19.40;54.00;;;;;;5055344;28;20285;-63
2023/06/22 03:19:14;;;;;;;9.32;6.72;;;19.40;55.40;;;;;;5054565;28;20181;-64
2023/06/22 03:21:40;;;;;;;7.70;6.65;;;19.40;54.80;;;;;;5054886;28;20173;-63
2023/06/22 03:24:07;;;;;;;11.73;7.78;;;19.30;57.80;;;;;;5054867;28;20659;-63
2023/06/22 03:26:34;;;;;;;12.30;7.95;;;19.30;58.40;;;;;;5054957;28;20180;-64
2023/06/22 03:29:00;;;;;;;7.72;6.95;;;19.20;56.30;;;;;;5054472;28;20204;-63
2023/06/22 03:31:26;;;;;;;8.48;7.00;;;19.20;63.30;;;;;;5054807;28;20186;-64
2023/06/22 03:33:51;;;;;;;11.25;7.05;;;19.20;66.10;;;;;;5054603;28;20234;-63
2023/06/22 03:36:18;;;;;;;8.07;6.50;;;19.30;69.00;;;;;;5053404;28;20543;-67
2023/06/22 03:38:45;;;;;;;9.02;6.78;;;19.30;68.40;;;;;;5054539;28;20268;-63
2023/06/22 03:41:11;;;;;;;8.95;7.00;;;19.40;66.80;;;;;;5054574;28;20172;-64
2023/06/22 03:43:36;;;;;;;8.30;6.65;;;19.50;67.50;;;;;;5054434;28;20527;-63
2023/06/22 03:46:02;;;;;;;8.40;6.70;;;19.60;60.60;;;;;;5054135;28;20234;-64
2023/06/22 03:48:28;;;;;;;9.52;7.65;;;19.60;55.40;;;;;;5054532;28;20215;-65
2023/06/22 03:50:53;;;;;;;9.52;7.15;;;19.60;51.50;;;;;;5054165;28;20208;-64
2023/06/22 03:53:19;;;;;;;8.90;6.97;;;19.50;53.20;;;;;;5053952;28;20664;-63
2023/06/22 03:55:52;;;;;;;9.18;7.10;;;19.50;58.00;;;;;;5053995;28;20173;-63
2023/06/22 03:58:19;;;;;;;9.35;7.50;;;19.50;57.80;;;;;;5053873;28;20180;-63
2023/06/22 04:00:49;;;;;;;8.88;7.40;;;19.60;53.80;;;;;;5053984;28;20303;-63
2023/06/22 04:03:16;;;;;;;14.50;7.75;;;19.50;50.50;;;;;;5053969;28;20252;-63
2023/06/22 04:05:42;;;;;;;10.88;7.85;;;19.60;53.00;;;;;;5053751;28;20260;-64
2023/06/22 04:08:08;;;;;;;10.93;7.97;;;19.60;50.30;;;;;;5053902;28;20188;-64
2023/06/22 04:10:34;;;;;;;13.80;8.18;;;19.70;49.20;;;;;;5053290;28;20213;-64
2023/06/22 04:13:00;;;;;;;11.45;8.73;;;19.70;46.60;;;;;;5053249;28;20176;-63
2023/06/22 04:15:25;;;;;;;14.40;9.02;;;19.70;49.00;;;;;;5053449;28;20636;-63
2023/06/22 04:17:51;;;;;;;14.65;9.57;;;19.70;46.80;;;;;;5035869;28;20219;-63
2023/06/22 04:20:17;;;;;;;17.45;9.23;;;19.80;48.50;;;;;;5053899;28;20231;-64
2023/06/22 04:22:42;;;;;;;19.77;10.13;;;20.00;42.80;;;;;;5053558;28;20660;-64
2023/06/22 04:25:08;;;;;;;16.10;9.77;;;19.90;38.40;;;;;;5053747;28;20656;-64
2023/06/22 04:27:40;;;;;;;12.30;9.85;;;20.00;39.90;;;;;;5053233;28;20186;-65
2023/06/22 04:30:07;;;;;;;17.10;11.30;;;19.90;41.20;;;;;;5053245;28;20216;-65
2023/06/22 04:32:36;;;;;;;14.48;11.40;;;19.90;40.50;;;;;;5053995;28;20243;-64
2023/06/22 04:35:04;;;;;;;14.93;10.32;;;19.90;41.10;;;;;;5053517;28;20168;-64
2023/06/22 04:37:30;;;;;;;14.57;10.75;;;20.00;42.90;;;;;;5052947;28;20229;-64
2023/06/22 04:39:56;;;;;;;12.43;10.63;;;20.00;39.90;;;;;;5052928;28;20174;-63
2023/06/22 04:42:21;;;;;;;15.15;10.45;;;20.00;40.50;;;;;;5053272;28;20197;-64
2023/06/22 04:44:47;;;;;;;11.98;10.43;;;19.90;38.50;;;;;;5053148;28;20189;-64
2023/06/22 04:47:13;;;;;;;12.65;11.35;;;19.90;42.70;;;;;;5052606;28;20236;-65
2023/06/22 04:49:40;;;;;;;14.38;11.82;;;19.90;41.70;;;;;;5053044;28;20209;-64
2023/06/22 04:52:07;;;;;;;13.70;11.35;;;19.90;43.70;;;;;;5052407;28;20184;-63
2023/06/22 04:54:34;;;;;;;15.02;10.82;;;20.00;45.20;;;;;;5052187;28;20213;-64
2023/06/22 04:57:05;;;;;;;12.80;11.32;;;20.00;42.90;;;;;;5052635;28;20268;-64
2023/06/22 04:59:31;;;;;;;12.85;10.75;;;20.10;42.90;;;;;;5052693;28;20165;-65
2023/06/22 05:01:58;;;;;;;13.13;11.30;;;20.10;41.40;;;;;;5052321;28;20169;-64
2023/06/22 05:04:24;;;;;;;11.63;10.43;;;20.10;40.40;;;;;;5052783;28;20280;-63
2023/06/22 05:06:54;;;;;;;15.63;11.57;;;20.20;40.20;;;;;;5052703;28;20564;-64
2023/06/22 05:09:20;;;;;;;14.68;11.98;;;20.30;41.20;;;;;;5051857;28;20205;-64
2023/06/22 05:11:46;;;;;;;14.48;11.18;;;20.20;37.10;;;;;;5051647;28;20660;-63
2023/06/22 05:14:12;;;;;;;15.38;11.80;;;20.30;40.60;;;;;;5052210;28;20227;-64
2023/06/22 05:16:39;;;;;;;15.23;11.50;;;20.20;37.40;;;;;;5034884;28;20585;-64
2023/06/22 05:19:05;;;;;;;13.27;11.70;;;20.20;42.50;;;;;;5051743;28;20509;-64
2023/06/22 05:21:31;;;;;;;15.65;12.10;;;20.10;43.90;;;;;;5052381;28;20176;-64
2023/06/22 05:24:02;;;;;;;17.85;12.55;;;20.10;46.70;;;;;;5051922;28;20209;-64
2023/06/22 05:26:32;;;;;;;13.40;11.85;;;20.20;50.70;;;;;;5052320;28;20187;-63
2023/06/22 05:29:00;;;;;;;14.85;12.63;;;20.20;48.70;;;;;;5051956;28;20189;-63
2023/06/22 05:31:26;;;;;;;14.90;12.48;;;20.20;52.30;;;;;;5052385;28;20162;-64
2023/06/22 05:33:53;;;;;;;14.52;13.05;;;20.10;54.90;;;;;;5051261;28;20667;-64
2023/06/22 05:36:19;;;;;;;19.60;13.38;;;20.00;65.70;;;;;;5052362;28;20295;-64
2023/06/22 05:38:45;;;;;;;12.85;11.50;;;20.00;75.60;;;;;;5051497;28;20184;-64
2023/06/22 05:41:11;;;;;;;15.13;12.50;;;20.00;71.00;;;;;;5051695;28;20170;-64
2023/06/22 05:43:37;;;;;;;17.58;12.90;;;20.10;79.60;;;;;;5052567;28;20165;-63
2023/06/22 05:46:04;;;;;;;15.05;12.25;;;20.20;70.90;;;;;;5052225;28;20180;-65
2023/06/22 05:48:30;;;;;;;17.77;12.60;;;20.20;83.10;;;;;;5051913;28;20165;-64
2023/06/22 05:50:55;;;;;;;18.98;12.30;;;20.10;86.70;;;;;;5050962;28;20205;-66
2023/06/22 05:53:21;;;;;;;20.98;13.05;;;20.10;95.00;;;;;;5051357;28;20174;-64
2023/06/22 05:55:46;;;;;;;18.17;13.23;;;20.00;96.40;;;;;;5052580;28;20210;-66
2023/06/22 05:58:13;;;;;;;18.52;14.18;;;20.00;99.40;;;;;;5052533;28;20196;-65
2023/06/22 06:00:39;;;;;;;17.98;14.27;;;20.10;99.90;;;;;;5054861;28;20267;-66
2023/06/22 06:03:05;;;;;;;15.32;13.70;;;20.00;99.90;;;;;;5055374;28;20272;-65
2023/06/22 06:05:34;;;;;;;18.23;14.77;;;19.90;99.90;;;;;;5055676;28;20624;-65
2023/06/22 06:08:01;;;;;;;21.10;15.77;;;19.90;99.90;;;;;;5054883;28;20329;-66
2023/06/22 06:10:29;;;;;;;23.30;15.68;;;19.70;99.90;;;;;;5056106;28;20208;-66
2023/06/22 06:12:55;;;;;;;21.35;15.30;;;19.70;99.90;;;;;;5055330;28;20634;-66
2023/06/22 06:15:21;;;;;;;24.30;16.50;;;19.80;99.90;;;;;;5055196;28;20256;-64
2023/06/22 06:17:51;;;;;;;22.48;16.40;;;19.70;99.90;;;;;;5055222;28;20165;-66
2023/06/22 06:20:24;;;;;;;22.90;16.88;;;19.70;99.90;;;;;;5054879;28;20176;-63
2023/06/22 06:22:50;;;;;;;21.23;16.80;;;19.70;99.90;;;;;;5054974;28;20173;-64
2023/06/22 06:25:16;;;;;;;24.00;17.42;;;19.70;99.90;;;;;;5054924;28;20256;-66
2023/06/22 06:27:53;;;;;;;22.52;15.82;;;19.80;99.90;;;;;;5055233;28;20193;-65
2023/06/22 06:30:19;;;;;;;22.15;15.65;;;19.80;99.90;;;;;;5074814;28;20359;-65
2023/06/22 06:32:45;;;;;;;19.23;15.23;;;19.90;99.90;;;;;;5075071;28;20251;-64
2023/06/22 06:35:13;;;;;;;25.00;17.15;;;19.90;99.90;;;;;;5074082;28;20187;-64
2023/06/22 06:37:40;;;;;;;23.13;16.38;;;20.20;99.90;;;;;;5074138;28;20264;-64
2023/06/22 06:40:11;;;;;;;22.23;16.40;;;20.40;99.90;;;;;;5074861;28;20322;-64
2023/06/22 06:42:40;;;;;;;21.88;16.23;;;20.30;99.90;;;;;;5055944;28;20172;-64
2023/06/22 06:45:06;;;;;;;21.38;16.33;;;20.30;98.90;;;;;;5075034;28;20165;-65
2023/06/22 06:47:32;;;;;;;26.05;17.08;;;20.30;99.90;;;;;;5074712;28;20173;-66
2023/06/22 06:49:57;;;;;;;23.45;16.63;;;20.40;99.90;;;;;;5074050;28;20266;-64
2023/06/22 06:52:23;;;;;;;25.25;16.13;;;20.50;99.90;;;;;;5073876;28;20653;-66
2023/06/22 06:54:51;;;;;;;22.55;16.48;;;20.80;99.90;;;;;;5073625;28;20181;-66
2023/06/22 06:57:17;;;;;;;25.52;15.73;;;20.80;90.50;;;;;;5074738;28;20161;-65
2023/06/22 06:59:43;;;;;;;18.77;16.48;;;21.00;95.00;;;;;;5074230;28;20172;-66
2023/06/22 07:02:08;;;;;;;20.75;16.70;;;21.30;93.90;;;;;;5074204;28;20627;-67
2023/06/22 07:04:34;;;;;;;22.02;16.33;;;21.20;67.80;;;;;;5073191;28;20530;-66
2023/06/22 07:07:02;;;;;;;22.63;15.93;;;21.10;53.40;;;;;;5072191;28;20523;-67
2023/06/22 07:09:27;;;;;;;19.67;15.95;;;21.00;61.70;;;;;;5064756;28;20685;-66
2023/06/22 07:11:53;;;;;;;21.60;17.40;;;21.00;76.70;;;;;;5066750;28;20179;-65
2023/06/22 07:14:19;;;;;;;25.42;17.58;;;21.00;73.10;;;;;;5068624;28;20999;-66
2023/06/22 07:16:44;;;;;;;24.48;17.40;;;21.10;83.20;;;;;;5089386;28;20176;-65
2023/06/22 07:19:12;;;;;;;19.80;17.38;;;21.10;63.00;;;;;;5074431;28;20183;-66
2023/06/22 07:21:39;;;;;;;19.00;16.80;;;21.10;66.40;;;;;;5083084;28;20180;-65
2023/06/22 07:24:08;;;;;;;23.75;17.75;;;21.10;73.50;;;;;;5075327;28;20628;-66
2023/06/22 07:26:34;;;;;;;21.98;17.27;;;21.20;62.00;;;;;;5073704;28;20188;-67
2023/06/22 07:29:00;;;;;;;25.02;17.13;;;21.30;58.40;;;;;;5073178;28;20226;-67
2023/06/22 07:31:25;;;;;;;19.40;16.45;;;21.60;53.70;;;;;;5072772;28;20173;-67
2023/06/22 07:33:52;;;;;;;20.98;17.05;;;21.90;39.50;;;;;;5073028;28;20165;-66
2023/06/22 07:36:18;;;;;;;18.00;16.20;;;22.10;21.40;;;;;;5073271;28;20268;-65
2023/06/22 07:38:44;;;;;;;19.52;16.50;;;21.90;22.10;;;;;;5046997;28;20213;-65
2023/06/22 07:41:09;;;;;;;19.60;16.45;;;21.60;26.30;;;;;;5073080;28;20200;-66
2023/06/22 07:43:36;;;;;;;19.08;17.08;;;21.50;32.60;;;;;;5047126;28;20166;-65
2023/06/22 07:46:03;;;;;;;21.85;16.27;;;21.50;36.10;;;;;;5033724;28;20166;-64
2023/06/22 07:48:29;;;;;;;22.50;16.90;;;21.40;35.10;;;;;;5033659;28;20182;-65
2023/06/22 07:50:55;;;;;;;19.40;16.10;;;21.40;45.20;;;;;;5032604;28;20216;-65
2023/06/22 07:53:21;;;;;;;19.27;15.63;;;21.50;37.10;;;;;;5033477;28;20228;-66
2023/06/22 07:55:47;;;;;;;18.35;16.38;;;21.50;34.00;;;;;;5043444;28;20174;-67
2023/06/22 07:58:13;;;;;;;20.63;15.70;;;21.50;30.90;;;;;;5032923;28;20181;-66
2023/06/22 08:00:39;;;;;;;18.50;15.80;;;21.40;34.40;;;;;;5039173;28;20668;-67
2023/06/22 08:03:05;;;;;;;18.35;15.82;;;21.30;34.40;;;;;;5032350;28;20264;-66
2023/06/22 08:05:31;;;;;;;19.70;16.08;;;21.20;43.10;;;;;;5033004;28;20217;-66
2023/06/22 08:07:57;;;;;;;16.70;14.82;;;21.40;36.90;;;;;;5044885;28;20174;-66
2023/06/22 08:10:23;;;;;;;19.83;15.68;;;21.10;44.00;;;;;;5037143;28;20207;-68
2023/06/22 08:12:48;;;;;;;20.40;15.73;;;21.10;45.30;;;;;;5045725;28;20185;-67
2023/06/22 08:15:14;;;;;;;19.42;16.05;;;21.20;50.50;;;;;;5033036;28;20173;-67
2023/06/22 08:17:40;;;;;;;18.00;16.27;;;21.30;45.30;;;;;;5042834;28;20547;-65
2023/06/22 08:20:11;;;;;;;24.02;16.98;;;21.30;40.10;;;;;;5049447;28;20721;-65
2023/06/22 08:22:37;;;;;;;18.83;16.35;;;21.30;44.40;;;;;;5049679;28;20188;-66
2023/06/22 08:25:03;;;;;;;21.15;16.90;;;21.20;48.60;;;;;;5033000;28;20602;-65
2023/06/22 08:27:31;;;;;;;19.27;17.30;;;21.20;51.80;;;;;;5030559;28;20280;-66
2023/06/22 08:29:58;;;;;;;22.10;17.17;;;21.20;53.20;;;;;;5029833;28;20198;-66
2023/06/22 08:32:26;;;;;;;22.92;17.23;;;21.00;55.40;;;;;;5030152;28;20312;-65
2023/06/22 08:34:55;;;;;;;24.77;18.63;;;21.00;57.50;;;;;;5031573;28;20174;-65
2023/06/22 08:37:23;;;;;;;20.67;18.00;;;21.00;62.20;;;;;;5040373;28;20247;-65
2023/06/22 08:39:49;;;;;;;20.65;17.35;;;21.00;63.80;;;;;;5051252;28;20184;-66
2023/06/22 08:42:15;;;;;;;19.27;17.13;;;21.00;71.40;;;;;;5052387;28;20169;-66
2023/06/22 08:44:40;;;;;;;19.42;17.25;;;21.00;73.30;;;;;;5052877;28;20169;-65
2023/06/22 08:47:06;;;;;;;33.08;18.83;;;21.10;75.70;;;;;;5052098;28;20199;-66
2023/06/22 08:49:32;;;;;;;22.27;18.00;;;21.20;73.10;;;;;;5052214;28;20256;-65
2023/06/22 08:51:57;;;;;;;19.90;16.17;;;21.40;66.30;;;;;;5052566;28;20629;-66
2023/06/22 08:54:23;;;;;;;19.55;17.02;;;21.20;56.30;;;;;;5052691;28;20195;-66
2023/06/22 08:56:48;;;;;;;17.98;16.17;;;21.20;68.80;;;;;;5052832;28;20200;-65
2023/06/22 08:59:14;;;;;;;20.70;16.65;;;21.20;70.30;;;;;;5052421;28;20171;-64
2023/06/22 09:01:40;;;;;;;18.75;16.88;;;21.30;69.80;;;;;;5052084;28;20169;-65
2023/06/22 09:04:07;;;;;;;22.40;17.05;;;21.30;58.50;;;;;;5052256;28;20325;-65
2023/06/22 09:06:33;;;;;;;19.08;16.20;;;21.30;72.60;;;;;;5052169;28;20166;-66
2023/06/22 09:09:01;;;;;;;18.40;16.65;;;21.30;62.50;;;;;;5052708;28;20731;-66
2023/06/22 09:11:27;;;;;;;20.30;16.70;;;21.20;70.20;;;;;;5052273;28;20177;-66
2023/06/22 09:13:53;;;;;;;20.90;17.48;;;21.30;77.50;;;;;;5052376;28;20181;-67
2023/06/22 09:16:19;;;;;;;21.55;17.35;;;21.40;90.80;;;;;;5052323;28;20491;-65
2023/06/22 09:18:48;;;;;;;18.98;16.27;;;21.60;79.70;;;;;;5052198;28;20161;-66
2023/06/22 09:21:14;;;;;;;18.85;16.55;;;21.60;72.60;;;;;;5052483;28;20226;-66
2023/06/22 09:23:39;;;;;;;17.73;15.05;;;21.70;58.30;;;;;;5052361;28;20256;-66
2023/06/22 09:26:05;;;;;;;16.92;15.13;;;21.70;48.50;;;;;;5052964;28;20173;-66
2023/06/22 09:28:31;;;;;;;17.67;15.43;;;21.60;58.20;;;;;;5052022;28;20671;-64
2023/06/22 09:30:58;;;;;;;19.00;15.25;;;21.40;64.70;;;;;;5051750;28;20208;-66
2023/06/22 09:33:24;;;;;;;19.33;15.55;;;21.40;85.70;;;;;;5053285;28;20173;-66
2023/06/22 09:35:50;;;;;;;18.02;16.02;;;21.50;67.00;;;;;;5056213;28;20165;-66
2023/06/22 09:38:16;;;;;;;17.67;15.98;;;21.50;71.90;;;;;;5055441;28;20300;-65
2023/06/22 09:40:42;;;;;;;19.08;15.30;;;21.10;65.40;;;;;;5056254;28;20256;-65
2023/06/22 09:43:08;;;;;;;17.70;15.43;;;21.00;81.00;;;;;;5056378;28;20223;-64
2023/06/22 09:45:34;;;;;;;21.85;17.52;;;20.70;91.30;;;;;;5055633;28;20192;-66
2023/06/22 09:47:59;;;;;;;21.95;17.17;;;20.50;99.90;;;;;;5055569;28;20179;-65
2023/06/22 09:50:25;;;;;;;20.13;17.05;;;20.30;99.90;;;;;;5056076;28;20296;-65
2023/06/22 09:52:54;;;;;;;23.27;19.60;;;20.10;99.90;;;;;;5055848;28;20169;-64
2023/06/22 09:55:20;;;;;;;15.30;13.27;;;19.80;99.90;;;;;;5039187;28;20165;-65
2023/06/22 09:57:46;;;;;;;19.05;16.30;;;19.50;99.90;;;;;;5055943;28;20199;-64
2023/06/22 10:00:13;;;;;;;21.05;18.85;;;19.30;99.90;;;;;;5055601;28;20169;-64
2023/06/22 10:02:39;;;;;;;25.20;21.98;;;19.10;99.90;;;;;;5055632;28;20165;-65
2023/06/22 10:05:05;;;;;;;26.60;23.73;;;18.90;99.90;;;;;;5055910;28;20290;-64
2023/06/22 10:07:31;;;;;;;25.88;23.17;;;18.70;99.90;;;;;;5055681;28;20257;-64
2023/06/22 10:09:56;;;;;;;28.70;24.08;;;18.50;99.90;;;;;;5055647;28;20220;-63
2023/06/22 10:12:22;;;;;;;26.30;21.97;;;18.40;99.90;;;;;;5055893;28;20169;-64
2023/06/22 10:14:50;;;;;;;32.37;24.97;;;18.30;99.90;;;;;;5055613;28;20169;-65
2023/06/22 10:17:16;;;;;;;23.87;19.07;;;18.40;99.90;;;;;;5037288;28;20169;-64
2023/06/22 10:19:41;;;;;;;24.13;20.80;;;18.20;99.90;;;;;;5055757;28;20173;-65
2023/06/22 10:22:07;;;;;;;27.83;22.43;;;18.20;99.90;;;;;;5055250;28;20169;-64
2023/06/22 10:24:33;;;;;;;28.33;24.60;;;18.20;99.90;;;;;;5055037;28;20165;-64
2023/06/22 10:26:59;;;;;;;29.27;24.80;;;18.30;99.90;;;;;;5055344;28;20530;-63
2023/06/22 10:29:24;;;;;;;28.93;24.77;;;18.20;99.90;;;;;;5055212;28;20691;-65
2023/06/22 10:31:50;;;;;;;26.90;24.10;;;18.20;99.90;;;;;;5037780;28;20177;-65
2023/06/22 10:34:26;;;;;;;27.60;24.37;;;18.20;99.90;;;;;;5055224;28;20598;-64
2023/06/22 10:36:51;;;;;;;28.67;24.87;;;18.20;99.90;;;;;;5029260;28;20741;-64
2023/06/22 10:39:17;;;;;;;27.47;24.57;;;18.30;99.90;;;;;;5015527;28;20179;-63
2023/06/22 10:41:44;;;;;;;27.93;24.90;;;18.30;99.90;;;;;;5014648;28;20221;-63
2023/06/22 10:44:10;;;;;;;29.97;25.63;;;18.40;99.90;;;;;;5016432;28;20194;-64
2023/06/22 10:46:36;;;;;;;28.57;25.47;;;18.50;99.90;;;;;;5029030;28;20542;-63
2023/06/22 10:49:02;;;;;;;29.02;26.00;;;18.50;99.90;;;;;;5026888;28;20637;-63
2023/06/22 10:51:28;;;;;;;31.37;26.77;;;18.60;99.90;;;;;;5031298;28;20595;-64
2023/06/22 10:53:54;;;;;;;28.63;25.58;;;18.60;99.90;;;;;;5033340;28;20264;-63
2023/06/22 10:56:19;;;;;;;31.83;28.40;;;18.70;99.90;;;;;;5026061;28;20183;-64
2023/06/22 10:58:45;;;;;;;31.58;28.10;;;18.80;99.90;;;;;;5032387;28;20272;-63
2023/06/22 11:01:11;;;;;;;34.40;28.55;;;18.90;99.90;;;;;;5031757;28;20177;-63
2023/06/22 11:03:37;;;;;;;35.20;30.35;;;18.90;99.90;;;;;;5032063;28;20182;-64
2023/06/22 11:06:02;;;;;;;34.80;30.90;;;19.10;99.90;;;;;;5033292;28;20532;-64
2023/06/22 11:08:28;;;;;;;32.78;29.38;;;19.00;99.90;;;;;;5033631;28;20545;-64
2023/06/22 11:10:54;;;;;;;33.70;29.83;;;19.10;99.90;;;;;;5032614;28;20209;-62
2023/06/22 11:13:19;;;;;;;36.55;30.60;;;19.00;99.90;;;;;;5033527;28;20249;-63
2023/06/22 11:15:45;;;;;;;34.08;30.38;;;18.90;99.90;;;;;;5033306;28;20575;-66
2023/06/22 11:18:10;;;;;;;34.95;31.15;;;19.00;99.90;;;;;;5033222;28;20575;-64
2023/06/22 11:20:38;;;;;;;38.33;33.42;;;19.00;99.90;;;;;;5033659;28;20174;-64
2023/06/22 11:23:06;;;;;;;32.90;29.42;;;19.10;99.90;;;;;;5033662;28;20182;-65
2023/06/22 11:25:32;;;;;;;34.35;30.13;;;19.10;99.90;;;;;;5033976;28;20181;-64
2023/06/22 11:27:57;;;;;;;33.33;29.37;;;19.10;99.90;;;;;;5033151;28;20586;-64
2023/06/22 11:30:23;;;;;;;28.63;25.30;;;19.10;99.90;;;;;;5033756;28;20210;-63
2023/06/22 11:32:49;;;;;;;27.90;24.98;;;19.00;99.90;;;;;;5028169;28;20669;-62
2023/06/22 11:35:14;;;;;;;28.38;25.50;;;18.80;99.90;;;;;;5032144;28;20654;-62
2023/06/22 11:37:40;;;;;;;28.80;24.80;;;18.70;99.90;;;;;;5053978;28;20223;-64
2023/06/22 11:40:09;;;;;;;26.03;23.33;;;18.70;99.90;;;;;;5070846;28;20222;-63
2023/06/22 11:42:34;;;;;;;26.67;23.83;;;18.80;99.90;;;;;;5069987;28;20188;-64
2023/06/22 11:45:00;;;;;;;26.40;23.63;;;18.80;99.90;;;;;;5072291;28;20238;-63
2023/06/22 11:47:26;;;;;;;24.90;20.98;;;18.90;99.90;;;;;;5072231;28;20184;-63
2023/06/22 11:49:51;;;;;;;23.67;21.40;;;18.80;99.90;;;;;;5062468;28;20212;-63
2023/06/22 11:52:19;;;;;;;24.07;21.57;;;18.90;99.90;;;;;;5072968;28;20177;-63
2023/06/22 11:54:45;;;;;;;26.42;23.60;;;18.80;99.90;;;;;;5073082;28;20172;-63
2023/06/22 11:57:11;;;;;;;26.77;23.33;;;18.90;99.90;;;;;;5071579;28;20194;-64
2023/06/22 11:59:36;;;;;;;26.23;23.43;;;18.80;99.90;;;;;;5072343;28;20701;-63
2023/06/22 12:02:03;;;;;;;25.73;22.93;;;18.80;99.90;;;;;;5072398;28;20173;-62
2023/06/22 12:04:29;;;;;;;27.10;24.27;;;18.60;99.90;;;;;;5072536;28;20177;-63
2023/06/22 12:06:54;;;;;;;28.80;25.80;;;18.80;99.90;;;;;;5072907;28;20209;-62
2023/06/22 12:09:20;;;;;;;27.43;24.53;;;18.80;99.90;;;;;;5072301;28;20239;-64
2023/06/22 12:11:45;;;;;;;26.73;24.00;;;19.00;99.90;;;;;;5071700;28;20588;-63
2023/06/22 12:14:11;;;;;;;27.40;24.60;;;18.90;99.90;;;;;;5065185;28;20196;-64
2023/06/22 12:16:37;;;;;;;27.30;24.45;;;18.90;99.90;;;;;;5055034;28;20176;-63
2023/06/22 12:19:03;;;;;;;28.35;25.25;;;19.00;99.90;;;;;;5072151;28;20183;-62
2023/06/22 12:21:28;;;;;;;28.08;25.08;;;18.90;99.90;;;;;;5060941;28;20176;-62
2023/06/22 12:23:54;;;;;;;27.27;24.55;;;18.90;99.90;;;;;;5070902;28;20176;-63
2023/06/22 12:26:20;;;;;;;27.08;24.33;;;18.80;99.90;;;;;;5072328;28;20542;-63
2023/06/22 12:28:45;;;;;;;27.25;24.48;;;18.90;99.90;;;;;;5072302;28;20173;-62
2023/06/22 12:31:11;;;;;;;30.70;26.27;;;18.80;99.90;;;;;;5071969;28;20212;-63